FLI weather

Holt Airport
Flateyri, Westfjords, Iceland

Public forecast

Using degrees Celsius for public forecast. Weather courtesy of forecast.io.

METAR (pilot weather report)

Report is more than 2 hours old.

Closest report is Ísafjörður Airport, 7.9 nm (14.7 km) ENE. Retrieved 2019/06/24 17:00 UTC (5 hours ago):

BIIS 241700Z 24012KT 9999 FEW025 OVC035 12/05 Q1024

TAF (pilot weather forecast)

Closest forecast is Reykjavik Airport, 119.3 nm (221.0 km) SSE. Retrieved 2019/06/24 21:51 UTC (0 seconds ago):

TAF BIRK 241947Z 2421/2521 24012KT 9999 FEW025 BKN035 TX12/2518Z TN09/2504Z BECMG 2421/2423 -DZ BKN015 OVC025 TEMPO 2500/2521 5000 -RADZ BR BKN005 OVC010